createdAt,value
2023-05-06T00:00:30.732Z,18.60
2023-05-06T00:03:00.362Z,18.50
2023-05-06T00:05:32.598Z,18.50
2023-05-06T00:08:02.054Z,18.50
2023-05-06T00:10:31.229Z,18.50
2023-05-06T00:13:01.977Z,18.50
2023-05-06T00:15:32.314Z,18.50
2023-05-06T00:18:02.494Z,18.50
2023-05-06T00:20:32.340Z,18.50
2023-05-06T00:23:01.568Z,18.50
2023-05-06T00:25:30.735Z,18.50
2023-05-06T00:28:01.726Z,18.50
2023-05-06T00:30:31.373Z,18.50
2023-05-06T00:33:00.746Z,18.50
2023-05-06T00:35:30.754Z,18.40
2023-05-06T00:38:09.286Z,18.50
2023-05-06T00:40:42.397Z,18.40
2023-05-06T00:43:13.630Z,18.40
2023-05-06T00:45:46.588Z,18.40
2023-05-06T00:48:24.616Z,18.40
2023-05-06T00:50:54.028Z,18.40
2023-05-06T00:53:41.281Z,18.40
2023-05-06T00:56:36.794Z,18.40
2023-05-06T00:59:21.882Z,18.30
2023-05-06T01:01:58.428Z,18.30
2023-05-06T01:04:30.895Z,18.30
2023-05-06T01:07:11.181Z,18.30
2023-05-06T01:09:52.274Z,18.30
2023-05-06T01:12:39.386Z,18.30
2023-05-06T01:15:31.598Z,18.20
2023-05-06T01:18:30.006Z,18.20
2023-05-06T01:21:16.281Z,18.20
2023-05-06T01:23:58.654Z,18.20
2023-05-06T01:26:28.766Z,18.20
2023-05-06T01:29:00.551Z,18.20
2023-05-06T01:31:49.908Z,18.20
2023-05-06T01:34:31.366Z,18.20
2023-05-06T01:37:19.618Z,18.20
2023-05-06T01:39:51.673Z,18.20
2023-05-06T01:42:27.174Z,18.20
2023-05-06T01:45:04.085Z,18.20
2023-05-06T01:47:38.216Z,18.20
2023-05-06T01:50:09.552Z,18.10
2023-05-06T01:52:41.501Z,18.10
2023-05-06T01:55:22.634Z,18.10
2023-05-06T01:57:52.393Z,18.10
2023-05-06T02:00:22.036Z,18.10
2023-05-06T02:02:52.283Z,18.10
2023-05-06T02:05:21.785Z,18.10
2023-05-06T02:07:55.499Z,18.10
2023-05-06T02:10:26.437Z,18.10
2023-05-06T02:13:02.433Z,18.10
2023-05-06T02:15:32.263Z,18.00
2023-05-06T02:18:03.298Z,18.00
2023-05-06T02:20:32.667Z,18.00
2023-05-06T02:23:01.783Z,18.10
2023-05-06T02:25:32.529Z,18.00
2023-05-06T02:28:02.174Z,18.10
2023-05-06T02:30:32.341Z,18.00
2023-05-06T02:33:01.709Z,18.00
2023-05-06T02:35:31.002Z,18.00
2023-05-06T02:38:00.633Z,18.00
2023-05-06T02:40:30.896Z,18.00
2023-05-06T02:43:02.834Z,18.00
2023-05-06T02:45:32.222Z,18.00
2023-05-06T02:48:02.846Z,18.00
2023-05-06T02:50:32.513Z,18.10
2023-05-06T02:53:02.027Z,18.10
2023-05-06T02:55:32.214Z,18.10
2023-05-06T02:58:02.977Z,18.10
2023-05-06T03:00:32.438Z,18.10
2023-05-06T03:03:01.906Z,18.10
2023-05-06T03:05:31.282Z,18.10
2023-05-06T03:08:00.556Z,18.10
2023-05-06T03:10:30.258Z,18.10
2023-05-06T03:13:01.908Z,18.10
2023-05-06T03:15:32.099Z,18.10
2023-05-06T03:18:01.518Z,18.10
2023-05-06T03:20:31.479Z,18.10
2023-05-06T03:23:02.378Z,18.10
2023-05-06T03:25:32.453Z,18.10
2023-05-06T03:28:04.354Z,18.10
2023-05-06T03:30:35.003Z,18.10
2023-05-06T03:33:07.859Z,18.10
2023-05-06T03:35:37.706Z,18.00
2023-05-06T03:38:07.076Z,18.10
2023-05-06T03:40:59.297Z,18.10
2023-05-06T03:43:31.011Z,18.10
2023-05-06T03:46:03.149Z,18.00
2023-05-06T03:48:34.127Z,18.10
2023-05-06T03:51:03.444Z,18.10
2023-05-06T03:53:32.888Z,18.00
2023-05-06T03:56:02.625Z,18.10
2023-05-06T03:58:34.550Z,18.00
2023-05-06T04:01:05.047Z,18.10
2023-05-06T04:03:35.250Z,18.00
2023-05-06T04:06:05.390Z,18.00
2023-05-06T04:08:34.540Z,18.00
2023-05-06T04:11:06.103Z,18.00
2023-05-06T04:13:37.075Z,18.00
2023-05-06T04:16:11.213Z,18.00
2023-05-06T04:18:44.041Z,18.00
2023-05-06T04:21:17.225Z,18.00
2023-05-06T04:23:51.247Z,18.00
2023-05-06T04:26:24.906Z,18.00
2023-05-06T04:28:55.833Z,18.00
2023-05-06T04:31:25.503Z,18.00
2023-05-06T04:33:54.980Z,18.00
2023-05-06T04:36:27.030Z,18.00
2023-05-06T04:39:20.258Z,18.00
2023-05-06T04:41:51.184Z,18.00
2023-05-06T04:44:29.636Z,18.00
2023-05-06T04:46:59.752Z,18.00
2023-05-06T04:49:29.065Z,18.00
2023-05-06T04:51:58.686Z,18.10
2023-05-06T04:54:28.804Z,18.10
2023-05-06T04:56:58.275Z,18.10
2023-05-06T04:59:29.674Z,18.10
2023-05-06T05:01:59.153Z,18.10
2023-05-06T05:04:28.367Z,18.10
2023-05-06T05:06:58.665Z,18.10
2023-05-06T05:09:28.501Z,18.10
2023-05-06T05:11:58.600Z,18.10
2023-05-06T05:14:30.025Z,18.10
2023-05-06T05:16:59.869Z,18.10
2023-05-06T05:19:29.133Z,18.10
2023-05-06T05:21:58.858Z,18.10
2023-05-06T05:24:28.700Z,18.10
2023-05-06T05:26:58.975Z,18.10
2023-05-06T05:29:30.045Z,18.10
2023-05-06T05:32:01.323Z,18.10
2023-05-06T05:34:31.999Z,18.20
2023-05-06T05:37:03.103Z,18.20
2023-05-06T05:39:33.251Z,18.20
2023-05-06T05:42:03.386Z,18.20
2023-05-06T05:44:34.408Z,18.20
2023-05-06T05:47:04.737Z,18.30
2023-05-06T05:49:35.014Z,18.30
2023-05-06T05:52:05.476Z,18.40
2023-05-06T05:54:35.063Z,18.40
2023-05-06T05:57:04.708Z,18.40
2023-05-06T05:59:35.558Z,18.40
2023-05-06T06:02:07.916Z,18.40
2023-05-06T06:04:37.823Z,18.50
2023-05-06T06:07:07.334Z,18.50
2023-05-06T06:09:41.811Z,18.50
2023-05-06T06:12:11.448Z,18.50
2023-05-06T06:14:47.906Z,18.50
2023-05-06T06:17:21.084Z,18.50
2023-05-06T06:19:57.062Z,18.60
2023-05-06T06:22:26.335Z,18.60
2023-05-06T06:24:57.006Z,18.60
2023-05-06T06:27:26.327Z,18.60
2023-05-06T06:29:56.948Z,18.60
2023-05-06T06:32:26.436Z,18.60
2023-05-06T06:34:56.152Z,18.60
2023-05-06T06:37:26.173Z,18.60
2023-05-06T06:39:55.618Z,18.60
2023-05-06T06:42:25.597Z,18.60
2023-05-06T06:45:12.601Z,18.60
2023-05-06T06:47:42.198Z,18.60
2023-05-06T06:50:12.385Z,18.60
2023-05-06T06:52:41.650Z,18.60
2023-05-06T06:55:11.520Z,18.60
2023-05-06T06:57:41.650Z,18.60
2023-05-06T07:00:13.761Z,18.60
2023-05-06T07:02:43.059Z,18.70
2023-05-06T07:05:13.225Z,18.70
2023-05-06T07:07:42.862Z,18.80
2023-05-06T07:10:12.380Z,18.80
2023-05-06T07:12:41.673Z,18.80
2023-05-06T07:15:13.063Z,18.80
2023-05-06T07:17:42.838Z,18.90
2023-05-06T07:20:13.366Z,18.90
2023-05-06T07:22:43.590Z,18.90
2023-05-06T07:25:13.345Z,18.90
2023-05-06T07:27:42.509Z,18.90
2023-05-06T07:30:13.782Z,18.90
2023-05-06T07:32:43.511Z,18.90
2023-05-06T07:35:13.073Z,18.90
2023-05-06T07:37:42.351Z,18.90
2023-05-06T07:40:12.488Z,18.90
2023-05-06T07:42:43.092Z,18.90
2023-05-06T07:45:15.439Z,18.90
2023-05-06T07:47:44.889Z,19.00
2023-05-06T07:50:14.175Z,19.00
2023-05-06T07:52:43.730Z,19.00
2023-05-06T07:55:13.169Z,19.10
2023-05-06T07:57:42.708Z,19.10
2023-05-06T08:00:14.451Z,19.20
2023-05-06T08:02:47.360Z,19.20
2023-05-06T08:05:17.439Z,19.30
2023-05-06T08:07:47.001Z,19.40
2023-05-06T08:10:16.204Z,19.40
2023-05-06T08:12:45.220Z,19.50
2023-05-06T08:15:15.938Z,19.60
2023-05-06T08:17:45.103Z,19.70
2023-05-06T08:20:15.044Z,19.70
2023-05-06T08:22:44.362Z,19.80
2023-05-06T08:25:13.743Z,19.90
2023-05-06T08:27:42.913Z,19.80
2023-05-06T08:30:13.235Z,19.80
2023-05-06T08:32:43.751Z,19.80
2023-05-06T08:35:13.559Z,19.70
2023-05-06T08:37:42.892Z,19.70
2023-05-06T08:40:19.282Z,19.70
2023-05-06T08:42:49.184Z,19.60
2023-05-06T08:45:20.713Z,19.60
2023-05-06T08:47:51.294Z,19.60
2023-05-06T08:50:21.336Z,19.50
2023-05-06T08:52:51.809Z,19.60
2023-05-06T08:55:22.903Z,19.60
2023-05-06T08:57:54.064Z,19.70
2023-05-06T09:00:23.300Z,19.80
2023-05-06T09:02:54.126Z,19.90
2023-05-06T09:05:23.251Z,20.00
2023-05-06T09:07:52.703Z,20.20
2023-05-06T09:10:22.019Z,20.30
2023-05-06T09:12:51.305Z,20.40
2023-05-06T09:15:25.365Z,20.60
2023-05-06T09:17:56.969Z,20.70
2023-05-06T09:20:26.157Z,20.80
2023-05-06T09:22:55.279Z,20.80
2023-05-06T09:25:24.378Z,20.90
2023-05-06T09:28:04.179Z,20.90
2023-05-06T09:30:33.705Z,20.90
2023-05-06T09:33:05.791Z,21.00
2023-05-06T09:35:39.440Z,21.00
2023-05-06T09:38:09.564Z,21.10
2023-05-06T09:40:39.950Z,21.20
2023-05-06T09:43:10.657Z,21.30
2023-05-06T09:45:40.388Z,21.30
2023-05-06T09:48:11.276Z,21.30
2023-05-06T09:50:41.258Z,21.30
2023-05-06T09:53:14.162Z,21.30
2023-05-06T09:55:43.751Z,21.30
2023-05-06T09:58:14.057Z,21.20
2023-05-06T10:00:44.384Z,21.20
2023-05-06T10:03:16.473Z,21.20
2023-05-06T10:05:47.080Z,21.20
2023-05-06T10:08:19.458Z,21.30
2023-05-06T10:10:50.633Z,21.40
2023-05-06T10:13:21.674Z,21.40
2023-05-06T10:15:51.751Z,21.50
2023-05-06T10:18:23.249Z,21.50
2023-05-06T10:20:55.357Z,21.50
2023-05-06T10:23:28.104Z,21.50
2023-05-06T10:25:58.700Z,21.50
2023-05-06T10:28:31.732Z,21.50
2023-05-06T10:31:01.615Z,21.50
2023-05-06T10:33:32.768Z,21.60
2023-05-06T10:36:12.723Z,21.60
2023-05-06T10:38:44.000Z,21.70
2023-05-06T10:41:14.458Z,21.70
2023-05-06T10:43:45.471Z,21.70
2023-05-06T10:46:16.312Z,21.70
2023-05-06T10:49:20.392Z,21.70
2023-05-06T10:52:13.400Z,21.80
2023-05-06T10:54:50.953Z,21.90
2023-05-06T10:57:22.510Z,22.00
2023-05-06T10:59:52.240Z,22.10
2023-05-06T11:02:21.735Z,22.20
2023-05-06T11:05:01.915Z,22.20
2023-05-06T11:07:32.858Z,22.40
2023-05-06T11:10:05.034Z,22.40
2023-05-06T11:12:52.565Z,22.50
2023-05-06T11:15:26.904Z,22.60
2023-05-06T11:17:57.339Z,22.70
2023-05-06T11:20:27.390Z,22.70
2023-05-06T11:22:58.134Z,22.70
2023-05-06T11:25:43.576Z,22.70
2023-05-06T11:28:14.123Z,22.80
2023-05-06T11:30:44.751Z,22.80
2023-05-06T11:33:19.889Z,22.90
2023-05-06T11:35:49.463Z,23.00
2023-05-06T11:38:20.220Z,23.10
2023-05-06T11:40:50.494Z,23.20
2023-05-06T11:43:20.429Z,23.30
2023-05-06T11:45:50.690Z,23.40
2023-05-06T11:48:20.662Z,23.40
2023-05-06T11:50:51.121Z,23.50
2023-05-06T11:53:23.026Z,23.60
2023-05-06T11:55:54.615Z,23.70
2023-05-06T11:58:30.499Z,23.80
2023-05-06T12:01:17.248Z,23.90
2023-05-06T12:03:58.583Z,24.00
2023-05-06T12:06:36.476Z,24.00
2023-05-06T12:09:09.366Z,24.00
2023-05-06T12:11:39.938Z,23.90
2023-05-06T12:14:11.145Z,23.90
2023-05-06T12:16:40.668Z,23.90
2023-05-06T12:19:10.879Z,23.90
2023-05-06T12:21:40.626Z,23.90
2023-05-06T12:24:12.493Z,24.00
2023-05-06T12:26:46.591Z,24.10
2023-05-06T12:29:18.097Z,24.10
2023-05-06T12:31:48.850Z,24.20
2023-05-06T12:34:19.357Z,24.40
2023-05-06T12:36:48.685Z,24.40
2023-05-06T12:39:19.945Z,24.60
2023-05-06T12:41:49.541Z,24.60
2023-05-06T12:44:38.056Z,24.60
2023-05-06T12:47:08.682Z,24.60
2023-05-06T12:49:48.509Z,24.70
2023-05-06T12:52:18.762Z,24.80
2023-05-06T12:54:59.868Z,24.80
2023-05-06T12:57:33.598Z,24.90
2023-05-06T13:00:07.464Z,25.00
2023-05-06T13:02:37.005Z,25.10
2023-05-06T13:05:06.727Z,25.10
2023-05-06T13:07:36.010Z,25.10
2023-05-06T13:10:07.238Z,25.20
2023-05-06T13:12:36.785Z,25.20
2023-05-06T13:15:06.774Z,25.30
2023-05-06T13:17:36.421Z,25.30
2023-05-06T13:20:07.188Z,25.40
2023-05-06T13:22:51.013Z,25.40
2023-05-06T13:25:28.988Z,25.50
2023-05-06T13:27:58.346Z,25.50
2023-05-06T13:30:32.380Z,25.60
2023-05-06T13:33:02.079Z,25.70
2023-05-06T13:35:31.631Z,25.80
2023-05-06T13:38:01.101Z,25.80
2023-05-06T13:40:31.579Z,25.90
2023-05-06T13:43:00.772Z,25.80
2023-05-06T13:45:30.112Z,25.70
2023-05-06T13:48:01.059Z,25.60
2023-05-06T13:50:30.334Z,25.50
2023-05-06T13:53:02.777Z,25.40
2023-05-06T13:55:33.341Z,25.30
2023-05-06T13:58:03.481Z,25.10
2023-05-06T14:00:33.433Z,25.10
2023-05-06T14:03:03.871Z,25.00
2023-05-06T14:05:46.894Z,24.90
2023-05-06T14:08:16.216Z,24.80
2023-05-06T14:10:47.277Z,24.80
2023-05-06T14:13:17.088Z,24.70
2023-05-06T14:15:46.641Z,24.60
2023-05-06T14:18:16.199Z,24.60
2023-05-06T14:20:45.489Z,24.60
2023-05-06T14:23:14.945Z,24.50
2023-05-06T14:25:44.200Z,24.50
2023-05-06T14:28:15.856Z,24.40
2023-05-06T14:30:45.505Z,24.40
2023-05-06T14:33:14.663Z,24.30
2023-05-06T14:35:45.993Z,24.20
2023-05-06T14:38:15.447Z,24.20
2023-05-06T14:40:44.745Z,24.20
2023-05-06T14:43:15.678Z,24.10
2023-05-06T14:45:44.914Z,24.00
2023-05-06T14:48:14.664Z,24.00
2023-05-06T14:50:43.789Z,24.00
2023-05-06T14:53:12.973Z,24.00
2023-05-06T14:55:42.431Z,24.00
2023-05-06T14:58:11.925Z,24.00
2023-05-06T15:00:43.000Z,23.90
2023-05-06T15:03:12.086Z,23.90
2023-05-06T15:05:41.303Z,23.90
2023-05-06T15:08:10.881Z,23.90
2023-05-06T15:10:40.751Z,23.80
2023-05-06T15:13:10.030Z,23.80
2023-05-06T15:15:39.401Z,23.70
2023-05-06T15:18:10.035Z,23.70
2023-05-06T15:20:40.721Z,23.70
2023-05-06T15:23:09.963Z,23.70
2023-05-06T15:25:39.194Z,23.60
2023-05-06T15:28:09.016Z,23.60
2023-05-06T15:30:38.699Z,23.60
2023-05-06T15:33:09.292Z,23.60
2023-05-06T15:35:38.339Z,23.60
2023-05-06T15:38:07.434Z,23.60
2023-05-06T15:40:36.589Z,23.50
2023-05-06T15:43:06.119Z,23.50
2023-05-06T15:45:35.312Z,23.40
2023-05-06T15:48:04.790Z,23.40
2023-05-06T15:50:37.421Z,23.40
2023-05-06T15:53:07.089Z,23.30
2023-05-06T15:55:45.070Z,23.30
2023-05-06T15:58:18.691Z,23.30
2023-05-06T16:00:47.954Z,23.30
2023-05-06T16:03:17.059Z,23.20
2023-05-06T16:05:48.008Z,23.20
2023-05-06T16:08:17.053Z,23.20
2023-05-06T16:10:46.409Z,23.10
2023-05-06T16:13:15.775Z,23.10
2023-05-06T16:15:45.810Z,23.10
2023-05-06T16:18:15.097Z,23.10
2023-05-06T16:20:44.255Z,23.00
2023-05-06T16:23:16.301Z,23.00
2023-05-06T16:25:45.427Z,23.00
2023-05-06T16:28:14.506Z,23.00
2023-05-06T16:30:44.867Z,23.00
2023-05-06T16:33:14.623Z,23.00
2023-05-06T16:35:43.708Z,23.00
2023-05-06T16:38:14.278Z,23.00
2023-05-06T16:40:47.754Z,23.00
2023-05-06T16:43:17.175Z,23.00
2023-05-06T16:45:46.744Z,23.00
2023-05-06T16:48:16.897Z,23.10
2023-05-06T16:50:46.203Z,23.10
2023-05-06T16:53:17.426Z,23.10
2023-05-06T16:55:50.439Z,23.20
2023-05-06T16:58:19.789Z,23.30
2023-05-06T17:00:49.098Z,23.30
2023-05-06T17:03:18.469Z,23.30
2023-05-06T17:05:47.873Z,23.40
2023-05-06T17:08:18.887Z,23.40
2023-05-06T17:10:48.862Z,23.40
2023-05-06T17:13:18.127Z,23.40
2023-05-06T17:15:47.510Z,23.40
2023-05-06T17:18:16.736Z,23.40
2023-05-06T17:20:54.847Z,23.30
2023-05-06T17:23:27.073Z,23.30
2023-05-06T17:25:57.347Z,23.20
2023-05-06T17:28:26.780Z,23.20
2023-05-06T17:30:57.004Z,23.10
2023-05-06T17:33:26.234Z,23.10
2023-05-06T17:35:55.759Z,23.10
2023-05-06T17:38:26.391Z,23.10
2023-05-06T17:40:59.329Z,23.00
2023-05-06T17:43:28.908Z,23.00
2023-05-06T17:45:58.269Z,22.90
2023-05-06T17:48:27.711Z,22.90
2023-05-06T17:51:01.300Z,22.90
2023-05-06T17:53:32.813Z,22.80
2023-05-06T17:56:01.899Z,22.70
2023-05-06T17:58:31.408Z,22.70
2023-05-06T18:01:00.561Z,22.60
2023-05-06T18:03:30.234Z,22.60
2023-05-06T18:05:59.986Z,22.50
2023-05-06T18:08:29.087Z,22.50
2023-05-06T18:11:00.119Z,22.50
2023-05-06T18:13:29.102Z,22.40
2023-05-06T18:15:58.174Z,22.40
2023-05-06T18:18:27.373Z,22.30
2023-05-06T18:20:57.061Z,22.30
2023-05-06T18:23:26.296Z,22.20
2023-05-06T18:25:55.444Z,22.20
2023-05-06T18:28:25.964Z,22.10
2023-05-06T18:30:55.153Z,22.10
2023-05-06T18:33:24.144Z,22.00
2023-05-06T18:35:53.051Z,22.00
2023-05-06T18:38:24.303Z,21.90
2023-05-06T18:40:53.174Z,21.80
2023-05-06T18:43:22.438Z,21.80
2023-05-06T18:45:53.225Z,21.70
2023-05-06T18:48:22.133Z,21.70
2023-05-06T18:50:53.865Z,21.70
2023-05-06T18:53:23.084Z,21.60
2023-05-06T18:55:52.184Z,21.50
2023-05-06T18:58:21.198Z,21.50
2023-05-06T19:00:50.305Z,21.40
2023-05-06T19:03:21.030Z,21.40
2023-05-06T19:05:50.081Z,21.40
2023-05-06T19:08:19.478Z,21.30
2023-05-06T19:10:48.608Z,21.20
2023-05-06T19:13:18.104Z,21.20
2023-05-06T19:15:47.494Z,21.20
2023-05-06T19:18:16.682Z,21.10
2023-05-06T19:20:47.336Z,21.10
2023-05-06T19:23:16.392Z,21.00
2023-05-06T19:25:45.255Z,21.00
2023-05-06T19:28:14.475Z,20.90
2023-05-06T19:30:43.551Z,20.90
2023-05-06T19:33:12.646Z,20.80
2023-05-06T19:35:41.613Z,20.80
2023-05-06T19:38:11.979Z,20.70
2023-05-06T19:40:41.227Z,20.60
2023-05-06T19:43:10.437Z,20.60
2023-05-06T19:45:39.848Z,20.50
2023-05-06T19:48:09.285Z,20.40
2023-05-06T19:50:38.609Z,20.40
2023-05-06T19:53:08.375Z,20.30
2023-05-06T19:55:38.986Z,20.20
2023-05-06T19:58:08.268Z,20.20
2023-05-06T20:00:38.558Z,20.10
2023-05-06T20:03:08.100Z,20.00
2023-05-06T20:05:37.517Z,20.00
2023-05-06T20:08:10.749Z,19.90
2023-05-06T20:10:41.664Z,19.90
2023-05-06T20:13:12.115Z,19.80
2023-05-06T20:15:41.582Z,19.80
2023-05-06T20:18:11.122Z,19.70
2023-05-06T20:20:40.905Z,19.70
2023-05-06T20:23:10.324Z,19.60
2023-05-06T20:25:40.998Z,19.60
2023-05-06T20:28:10.255Z,19.50
2023-05-06T20:30:39.510Z,19.50
2023-05-06T20:33:09.585Z,19.50
2023-05-06T20:35:40.498Z,19.40
2023-05-06T20:38:10.922Z,19.40
2023-05-06T20:40:41.493Z,19.30
2023-05-06T20:43:10.546Z,19.30
2023-05-06T20:45:39.886Z,19.20
2023-05-06T20:48:09.100Z,19.20
2023-05-06T20:50:38.399Z,19.20
2023-05-06T20:53:07.733Z,19.10
2023-05-06T20:55:36.951Z,19.10
2023-05-06T20:58:07.605Z,19.10
2023-05-06T21:00:36.705Z,19.00
2023-05-06T21:03:06.164Z,19.00
2023-05-06T21:05:35.690Z,18.90
2023-05-06T21:08:05.422Z,18.90
2023-05-06T21:10:34.823Z,18.90
2023-05-06T21:13:04.827Z,18.90
2023-05-06T21:15:39.873Z,18.80
2023-05-06T21:18:10.121Z,18.80
2023-05-06T21:20:39.643Z,18.80
2023-05-06T21:23:08.836Z,18.80
2023-05-06T21:25:37.832Z,18.70
2023-05-06T21:28:06.917Z,18.70
2023-05-06T21:30:38.216Z,18.70
2023-05-06T21:33:10.916Z,18.60
2023-05-06T21:35:40.794Z,18.60
2023-05-06T21:38:11.285Z,18.50
2023-05-06T21:40:40.528Z,18.50
2023-05-06T21:43:10.000Z,18.50
2023-05-06T21:45:42.328Z,18.50
2023-05-06T21:48:11.742Z,18.40
2023-05-06T21:50:41.031Z,18.40
2023-05-06T21:53:10.554Z,18.40
2023-05-06T21:55:39.847Z,18.40
2023-05-06T21:58:09.078Z,18.30
2023-05-06T22:00:38.029Z,18.30
2023-05-06T22:03:08.868Z,18.30
2023-05-06T22:05:39.998Z,18.30
2023-05-06T22:08:09.006Z,18.20
2023-05-06T22:10:38.267Z,18.20
2023-05-06T22:13:07.731Z,18.20
2023-05-06T22:15:36.764Z,18.20
2023-05-06T22:18:08.735Z,18.20
2023-05-06T22:20:39.896Z,18.20
2023-05-06T22:23:09.044Z,18.10
2023-05-06T22:25:38.400Z,18.10
2023-05-06T22:28:07.856Z,18.10
2023-05-06T22:30:37.108Z,18.10
2023-05-06T22:33:06.279Z,18.00
2023-05-06T22:35:35.298Z,18.00
2023-05-06T22:38:05.928Z,18.00
2023-05-06T22:40:35.428Z,17.90
2023-05-06T22:43:04.531Z,17.90
2023-05-06T22:45:33.493Z,17.90
2023-05-06T22:48:02.815Z,17.80
2023-05-06T22:50:31.991Z,17.80
2023-05-06T22:53:10.275Z,17.80
2023-05-06T22:55:45.410Z,17.80
2023-05-06T22:58:14.556Z,17.70
2023-05-06T23:00:47.768Z,17.60
2023-05-06T23:03:18.334Z,17.60
2023-05-06T23:05:47.519Z,17.60
2023-05-06T23:08:16.742Z,17.60
2023-05-06T23:10:47.462Z,17.50
2023-05-06T23:13:17.054Z,17.50
2023-05-06T23:15:46.753Z,17.50
2023-05-06T23:18:15.883Z,17.40
2023-05-06T23:20:45.452Z,17.40
2023-05-06T23:23:14.655Z,17.40
2023-05-06T23:25:43.717Z,17.40
2023-05-06T23:28:14.957Z,17.40
2023-05-06T23:30:44.385Z,17.40
2023-05-06T23:33:14.294Z,17.40
2023-05-06T23:35:43.520Z,17.30
2023-05-06T23:38:12.669Z,17.30
2023-05-06T23:40:41.857Z,17.30
2023-05-06T23:43:11.377Z,17.30
2023-05-06T23:45:41.859Z,17.30
2023-05-06T23:48:11.108Z,17.30
2023-05-06T23:50:40.686Z,17.20
2023-05-06T23:53:09.763Z,17.20
2023-05-06T23:55:39.070Z,17.20
2023-05-06T23:58:08.357Z,17.20
